createdAt,value
2023-03-29T00:00:19.805Z,59
2023-03-29T00:05:19.888Z,61
2023-03-29T00:10:19.888Z,63
2023-03-29T00:15:19.941Z,64
2023-03-29T00:20:16.750Z,64
2023-03-29T00:25:19.923Z,66
2023-03-29T00:30:19.924Z,66
2023-03-29T00:35:20.069Z,67
2023-03-29T00:40:19.921Z,70
2023-03-29T00:45:19.960Z,70
2023-03-29T00:50:19.986Z,71
2023-03-29T00:55:20.009Z,72
2023-03-29T01:00:20.032Z,72
2023-03-29T01:05:19.971Z,72
2023-03-29T01:10:16.849Z,73
2023-03-29T01:15:16.799Z,73
2023-03-29T01:20:20.104Z,73
2023-03-29T01:25:20.196Z,75
2023-03-29T01:30:20.092Z,75
2023-03-29T01:35:20.053Z,75
2023-03-29T01:40:20.065Z,77
2023-03-29T01:45:20.007Z,79
2023-03-29T01:50:20.093Z,79
2023-03-29T01:55:20.063Z,79
2023-03-29T02:00:20.321Z,80
2023-03-29T02:05:16.910Z,80
2023-03-29T02:10:17.041Z,81
2023-03-29T02:15:20.312Z,81
2023-03-29T02:20:20.056Z,81
2023-03-29T02:25:20.044Z,82
2023-03-29T02:30:20.130Z,83
2023-03-29T02:35:20.066Z,83
2023-03-29T02:40:20.106Z,83
2023-03-29T02:45:20.107Z,84
2023-03-29T02:50:20.150Z,83
2023-03-29T02:55:20.239Z,84
2023-03-29T03:00:17.087Z,84
2023-03-29T03:05:17.062Z,83
2023-03-29T03:10:20.230Z,84
2023-03-29T03:15:20.231Z,84
2023-03-29T03:20:20.200Z,84
2023-03-29T03:25:20.250Z,84
2023-03-29T03:30:20.186Z,85
2023-03-29T03:35:20.365Z,85
2023-03-29T03:40:20.152Z,85
2023-03-29T03:45:20.222Z,86
2023-03-29T03:50:20.249Z,86
2023-03-29T03:55:17.189Z,86
2023-03-29T04:00:19.732Z,86
2023-03-29T04:05:16.541Z,87
2023-03-29T04:10:16.594Z,87
2023-03-29T04:15:16.689Z,87
2023-03-29T04:20:19.762Z,87
2023-03-29T04:25:19.603Z,87
2023-03-29T04:30:19.580Z,88
2023-03-29T04:35:19.517Z,88
2023-03-29T04:40:19.644Z,88
2023-03-29T04:45:19.667Z,88
2023-03-29T04:50:19.597Z,87
2023-03-29T04:55:19.815Z,87
2023-03-29T05:00:16.612Z,87
2023-03-29T05:05:16.580Z,87
2023-03-29T05:10:19.614Z,87
2023-03-29T05:15:19.610Z,87
2023-03-29T05:20:19.729Z,88
2023-03-29T05:25:19.722Z,88
2023-03-29T05:30:19.787Z,88
2023-03-29T05:35:19.776Z,88
2023-03-29T05:40:19.773Z,88
2023-03-29T05:45:19.857Z,88
2023-03-29T05:50:19.808Z,89
2023-03-29T05:55:16.771Z,89
2023-03-29T06:00:16.703Z,89
2023-03-29T06:05:19.929Z,89
2023-03-29T06:10:19.798Z,89
2023-03-29T06:15:19.851Z,85
2023-03-29T06:20:19.877Z,82
2023-03-29T06:25:19.944Z,79
2023-03-29T06:30:19.883Z,80
2023-03-29T06:35:19.828Z,80
2023-03-29T06:40:20.054Z,81
2023-03-29T06:45:21.251Z,79
2023-03-29T06:50:16.725Z,78
2023-03-29T06:55:17.100Z,76
2023-03-29T07:00:19.974Z,74
2023-03-29T07:05:19.961Z,75
2023-03-29T07:10:19.875Z,76
2023-03-29T07:15:20.059Z,74
2023-03-29T07:20:19.997Z,74
2023-03-29T07:25:20.029Z,73
2023-03-29T07:30:20.012Z,72
2023-03-29T07:35:20.022Z,72
2023-03-29T07:40:16.929Z,74
2023-03-29T07:45:16.987Z,73
2023-03-29T07:50:20.114Z,73
2023-03-29T07:55:20.084Z,72
2023-03-29T08:00:20.172Z,73
2023-03-29T08:05:29.263Z,71
2023-03-29T08:10:20.050Z,74
2023-03-29T08:15:20.124Z,72
2023-03-29T08:20:20.097Z,73
2023-03-29T08:25:20.172Z,74
2023-03-29T08:30:20.138Z,77
2023-03-29T08:35:17.098Z,76
2023-03-29T08:40:17.109Z,77
2023-03-29T08:45:20.277Z,80
2023-03-29T08:50:20.182Z,77
2023-03-29T08:55:20.158Z,80
2023-03-29T09:00:20.304Z,81
2023-03-29T09:05:20.231Z,81
2023-03-29T09:10:20.197Z,80
2023-03-29T09:15:20.272Z,80
2023-03-29T09:20:20.267Z,81
2023-03-29T09:25:20.224Z,82
2023-03-29T09:30:17.197Z,83
2023-03-29T09:35:20.532Z,84
2023-03-29T09:40:20.286Z,85
2023-03-29T09:45:20.298Z,85
2023-03-29T09:50:30.954Z,85
2023-03-29T09:55:20.415Z,85
2023-03-29T10:00:20.307Z,85
2023-03-29T10:05:20.409Z,86
2023-03-29T10:10:20.435Z,86
2023-03-29T10:15:29.238Z,86
2023-03-29T10:20:17.390Z,86
2023-03-29T10:25:17.190Z,87
2023-03-29T10:30:20.557Z,87
2023-03-29T10:35:20.486Z,87
2023-03-29T10:40:20.454Z,87
2023-03-29T10:45:20.538Z,88
2023-03-29T10:50:20.525Z,88
2023-03-29T10:55:20.546Z,88
2023-03-29T11:00:20.445Z,88
2023-03-29T11:05:20.644Z,87
2023-03-29T11:10:20.599Z,88
2023-03-29T11:15:17.442Z,87
2023-03-29T11:20:17.503Z,87
2023-03-29T11:25:20.588Z,87
2023-03-29T11:30:18.623Z,87
2023-03-29T11:35:18.593Z,86
2023-03-29T11:40:18.653Z,86
2023-03-29T11:45:18.592Z,84
2023-03-29T11:50:18.724Z,82
2023-03-29T11:55:15.506Z,80
2023-03-29T12:00:15.494Z,78
2023-03-29T12:05:18.723Z,75
2023-03-29T12:10:18.653Z,75
2023-03-29T12:15:18.698Z,73
2023-03-29T12:20:18.700Z,75
2023-03-29T12:25:17.793Z,73
2023-03-29T12:30:18.742Z,71
2023-03-29T12:35:18.761Z,69
2023-03-29T12:40:18.820Z,68
2023-03-29T12:45:18.788Z,67
2023-03-29T12:50:15.686Z,68
2023-03-29T12:55:15.846Z,67
2023-03-29T13:00:18.969Z,66
2023-03-29T13:05:18.867Z,65
2023-03-29T13:10:18.846Z,64
2023-03-29T13:15:15.929Z,63
2023-03-29T13:20:18.887Z,62
2023-03-29T13:25:18.875Z,61
2023-03-29T13:30:19.013Z,61
2023-03-29T13:35:18.961Z,62
2023-03-29T13:40:15.839Z,60
2023-03-29T13:45:15.836Z,60
2023-03-29T13:50:15.997Z,59
2023-03-29T13:55:19.099Z,59
2023-03-29T14:00:18.960Z,57
2023-03-29T14:05:19.003Z,56
2023-03-29T14:10:18.897Z,55
2023-03-29T14:15:19.001Z,54
2023-03-29T14:20:18.923Z,54
2023-03-29T14:25:19.010Z,53
2023-03-29T14:30:19.007Z,54
2023-03-29T14:35:15.905Z,53
2023-03-29T14:40:19.224Z,53
2023-03-29T14:45:19.131Z,51
2023-03-29T14:50:19.095Z,50
2023-03-29T14:55:19.147Z,51
2023-03-29T15:00:19.048Z,51
2023-03-29T15:05:19.000Z,50
2023-03-29T15:10:19.232Z,48
2023-03-29T15:15:18.995Z,47
2023-03-29T15:20:19.064Z,49
2023-03-29T15:25:16.045Z,46
2023-03-29T15:30:16.077Z,45
2023-03-29T15:35:19.264Z,41
2023-03-29T15:40:19.269Z,43
2023-03-29T15:45:19.108Z,44
2023-03-29T15:50:19.211Z,44
2023-03-29T15:55:19.256Z,44
2023-03-29T16:00:19.182Z,43
2023-03-29T16:05:19.126Z,42
2023-03-29T16:10:19.174Z,43
2023-03-29T16:15:19.198Z,40
2023-03-29T16:20:16.083Z,40
2023-03-29T16:25:16.406Z,40
2023-03-29T16:30:19.300Z,39
2023-03-29T16:35:19.297Z,41
2023-03-29T16:40:19.229Z,38
2023-03-29T16:45:19.271Z,36
2023-03-29T16:50:19.328Z,36
2023-03-29T16:55:19.431Z,34
2023-03-29T17:00:19.172Z,34
2023-03-29T17:05:19.310Z,34
2023-03-29T17:10:16.174Z,33
2023-03-29T17:15:16.160Z,32
2023-03-29T17:20:19.325Z,32
2023-03-29T17:25:19.650Z,33
2023-03-29T17:30:19.185Z,33
2023-03-29T17:35:19.328Z,34
2023-03-29T17:40:19.353Z,32
2023-03-29T17:45:19.349Z,35
2023-03-29T17:50:19.333Z,33
2023-03-29T17:55:19.274Z,33
2023-03-29T18:00:19.527Z,33
2023-03-29T18:05:16.321Z,34
2023-03-29T18:10:16.290Z,33
2023-03-29T18:15:19.435Z,33
2023-03-29T18:20:19.403Z,33
2023-03-29T18:25:19.427Z,33
2023-03-29T18:30:19.429Z,36
2023-03-29T18:35:19.481Z,32
2023-03-29T18:40:19.461Z,33
2023-03-29T18:45:19.546Z,33
2023-03-29T18:50:19.459Z,31
2023-03-29T18:55:16.370Z,31
2023-03-29T19:00:16.428Z,33
2023-03-29T19:05:19.436Z,31
2023-03-29T19:10:19.542Z,31
2023-03-29T19:15:19.493Z,33
2023-03-29T19:20:19.508Z,33
2023-03-29T19:25:19.720Z,33
2023-03-29T19:30:19.502Z,34
2023-03-29T19:35:19.780Z,35
2023-03-29T19:40:19.438Z,33
2023-03-29T19:45:19.698Z,33
2023-03-29T19:50:16.477Z,31
2023-03-29T19:55:16.365Z,32
2023-03-29T20:00:19.559Z,32
2023-03-29T20:05:19.691Z,33
2023-03-29T20:10:19.546Z,32
2023-03-29T20:15:19.560Z,31
2023-03-29T20:20:19.645Z,33
2023-03-29T20:25:19.552Z,34
2023-03-29T20:30:19.676Z,34
2023-03-29T20:35:19.628Z,34
2023-03-29T20:40:19.640Z,34
2023-03-29T20:45:16.507Z,34
2023-03-29T20:50:19.608Z,33
2023-03-29T20:55:19.728Z,34
2023-03-29T21:00:19.581Z,33
2023-03-29T21:05:19.636Z,34
2023-03-29T21:10:19.740Z,34
2023-03-29T21:15:19.723Z,33
2023-03-29T21:20:19.684Z,34
2023-03-29T21:25:19.696Z,35
2023-03-29T21:30:19.785Z,35
2023-03-29T21:35:16.565Z,34
2023-03-29T21:40:16.556Z,35
2023-03-29T21:45:19.776Z,38
2023-03-29T21:50:19.716Z,42
2023-03-29T21:55:19.701Z,46
2023-03-29T22:00:19.730Z,46
2023-03-29T22:05:19.761Z,45
2023-03-29T22:10:19.857Z,45
2023-03-29T22:15:19.718Z,46
2023-03-29T22:20:19.820Z,48
2023-03-29T22:25:19.775Z,48
2023-03-29T22:30:16.680Z,49
2023-03-29T22:35:16.706Z,50
2023-03-29T22:40:20.150Z,51
2023-03-29T22:45:19.859Z,52
2023-03-29T22:50:19.899Z,54
2023-03-29T22:55:19.918Z,54
2023-03-29T23:00:19.841Z,54
2023-03-29T23:05:19.787Z,55
2023-03-29T23:10:19.814Z,56
2023-03-29T23:15:19.853Z,57
2023-03-29T23:20:19.789Z,56
2023-03-29T23:25:16.829Z,58
2023-03-29T23:30:16.975Z,59
2023-03-29T23:35:19.918Z,59
2023-03-29T23:40:19.895Z,60
2023-03-29T23:45:20.049Z,62
2023-03-29T23:50:20.030Z,62
2023-03-29T23:55:19.886Z,62
